sensor_id;sensor_type;location;lat;lon;timestamp;temperature;humidity
26575;DHT22;67165;50.256;10.978;2023-03-01T00:00:38;-1.00;98.00
26575;DHT22;67165;50.256;10.978;2023-03-01T00:03:04;-1.10;98.00
26575;DHT22;67165;50.256;10.978;2023-03-01T00:05:29;-1.10;98.00
26575;DHT22;67165;50.256;10.978;2023-03-01T00:07:55;-1.10;98.00
26575;DHT22;67165;50.256;10.978;2023-03-01T00:10:21;-1.10;98.00
26575;DHT22;67165;50.256;10.978;2023-03-01T00:12:46;-1.10;98.00
26575;DHT22;67165;50.256;10.978;2023-03-01T00:15:12;-1.10;98.00
26575;DHT22;67165;50.256;10.978;2023-03-01T00:17:37;-1.20;98.00
26575;DHT22;67165;50.256;10.978;2023-03-01T00:20:04;-1.10;98.00
26575;DHT22;67165;50.256;10.978;2023-03-01T00:22:33;-1.10;98.00
26575;DHT22;67165;50.256;10.978;2023-03-01T00:24:59;-1.00;98.00
26575;DHT22;67165;50.256;10.978;2023-03-01T00:27:24;-1.00;98.00
26575;DHT22;67165;50.256;10.978;2023-03-01T00:29:50;-1.00;98.00
26575;DHT22;67165;50.256;10.978;2023-03-01T00:32:15;-0.90;98.00
26575;DHT22;67165;50.256;10.978;2023-03-01T00:34:41;-0.90;98.00
26575;DHT22;67165;50.256;10.978;2023-03-01T00:37:07;-1.00;98.00
26575;DHT22;67165;50.256;10.978;2023-03-01T00:39:32;-1.00;98.00
26575;DHT22;67165;50.256;10.978;2023-03-01T00:41:58;-1.00;98.00
26575;DHT22;67165;50.256;10.978;2023-03-01T00:44:24;-0.90;98.00
26575;DHT22;67165;50.256;10.978;2023-03-01T00:46:50;-1.00;98.00
26575;DHT22;67165;50.256;10.978;2023-03-01T00:49:15;-1.00;98.00
26575;DHT22;67165;50.256;10.978;2023-03-01T00:51:41;-1.00;98.00
26575;DHT22;67165;50.256;10.978;2023-03-01T00:54:09;-1.00;98.00
26575;DHT22;67165;50.256;10.978;2023-03-01T00:56:35;-1.00;98.00
26575;DHT22;67165;50.256;10.978;2023-03-01T00:59:01;-1.10;98.00
26575;DHT22;67165;50.256;10.978;2023-03-01T01:01:29;-1.10;98.00
26575;DHT22;67165;50.256;10.978;2023-03-01T01:03:57;-1.10;98.00
26575;DHT22;67165;50.256;10.978;2023-03-01T01:06:33;-1.10;98.00
26575;DHT22;67165;50.256;10.978;2023-03-01T01:08:59;-1.00;98.00
26575;DHT22;67165;50.256;10.978;2023-03-01T01:11:26;-1.10;98.00
26575;DHT22;67165;50.256;10.978;2023-03-01T01:13:52;-1.10;98.00
26575;DHT22;67165;50.256;10.978;2023-03-01T01:16:19;-1.20;98.00
26575;DHT22;67165;50.256;10.978;2023-03-01T01:18:46;-1.30;98.00
26575;DHT22;67165;50.256;10.978;2023-03-01T01:21:15;-1.30;98.00
26575;DHT22;67165;50.256;10.978;2023-03-01T01:23:42;-1.40;98.00
26575;DHT22;67165;50.256;10.978;2023-03-01T01:26:17;-1.30;98.00
26575;DHT22;67165;50.256;10.978;2023-03-01T01:28:43;-1.40;98.00
26575;DHT22;67165;50.256;10.978;2023-03-01T01:31:09;-1.50;98.00
26575;DHT22;67165;50.256;10.978;2023-03-01T01:33:35;-1.50;98.00
26575;DHT22;67165;50.256;10.978;2023-03-01T01:36:00;-1.60;98.00
26575;DHT22;67165;50.256;10.978;2023-03-01T01:38:26;-1.70;98.00
26575;DHT22;67165;50.256;10.978;2023-03-01T01:40:52;-1.70;98.00
26575;DHT22;67165;50.256;10.978;2023-03-01T01:43:26;-1.80;98.00
26575;DHT22;67165;50.256;10.978;2023-03-01T01:45:55;-1.90;98.00
26575;DHT22;67165;50.256;10.978;2023-03-01T01:48:24;-1.90;98.00
26575;DHT22;67165;50.256;10.978;2023-03-01T01:50:59;-1.90;98.00
26575;DHT22;67165;50.256;10.978;2023-03-01T01:53:25;-1.90;98.00
26575;DHT22;67165;50.256;10.978;2023-03-01T01:55:55;-1.80;98.00
26575;DHT22;67165;50.256;10.978;2023-03-01T01:58:24;-1.80;98.00
26575;DHT22;67165;50.256;10.978;2023-03-01T02:00:51;-1.80;98.00
26575;DHT22;67165;50.256;10.978;2023-03-01T02:03:27;-1.90;98.00
26575;DHT22;67165;50.256;10.978;2023-03-01T02:06:11;-1.90;98.00
26575;DHT22;67165;50.256;10.978;2023-03-01T02:08:39;-1.90;98.00
26575;DHT22;67165;50.256;10.978;2023-03-01T02:11:07;-2.00;98.00
26575;DHT22;67165;50.256;10.978;2023-03-01T02:13:34;-2.00;98.00
26575;DHT22;67165;50.256;10.978;2023-03-01T02:16:04;-2.10;98.00
26575;DHT22;67165;50.256;10.978;2023-03-01T02:18:30;-2.10;98.00
26575;DHT22;67165;50.256;10.978;2023-03-01T02:21:08;-2.10;98.00
26575;DHT22;67165;50.256;10.978;2023-03-01T02:23:38;-2.20;98.00
26575;DHT22;67165;50.256;10.978;2023-03-01T02:28:45;-2.20;98.00
26575;DHT22;67165;50.256;10.978;2023-03-01T02:31:16;-2.20;98.00
26575;DHT22;67165;50.256;10.978;2023-03-01T02:34:02;-2.30;98.00
26575;DHT22;67165;50.256;10.978;2023-03-01T02:36:35;-2.30;98.00
26575;DHT22;67165;50.256;10.978;2023-03-01T02:39:04;-2.40;98.00
26575;DHT22;67165;50.256;10.978;2023-03-01T02:41:35;-2.40;98.00
26575;DHT22;67165;50.256;10.978;2023-03-01T02:44:01;-2.50;98.00
26575;DHT22;67165;50.256;10.978;2023-03-01T02:46:27;-2.50;98.00
26575;DHT22;67165;50.256;10.978;2023-03-01T02:48:55;-2.50;98.00
26575;DHT22;67165;50.256;10.978;2023-03-01T02:54:28;-2.60;98.00
26575;DHT22;67165;50.256;10.978;2023-03-01T02:56:55;-2.60;98.00
26575;DHT22;67165;50.256;10.978;2023-03-01T02:59:24;-2.70;98.00
26575;DHT22;67165;50.256;10.978;2023-03-01T03:01:51;-2.80;98.00
26575;DHT22;67165;50.256;10.978;2023-03-01T03:04:18;-2.80;98.00
26575;DHT22;67165;50.256;10.978;2023-03-01T03:06:45;-2.90;98.00
26575;DHT22;67165;50.256;10.978;2023-03-01T03:09:11;-2.90;98.00
26575;DHT22;67165;50.256;10.978;2023-03-01T03:11:38;-2.80;98.00
26575;DHT22;67165;50.256;10.978;2023-03-01T03:14:07;-2.80;98.00
26575;DHT22;67165;50.256;10.978;2023-03-01T03:16:44;-2.70;98.00
26575;DHT22;67165;50.256;10.978;2023-03-01T03:19:10;-2.70;98.00
26575;DHT22;67165;50.256;10.978;2023-03-01T03:21:36;-2.80;98.00
26575;DHT22;67165;50.256;10.978;2023-03-01T03:24:02;-2.80;98.00
26575;DHT22;67165;50.256;10.978;2023-03-01T03:26:28;-2.80;98.00
26575;DHT22;67165;50.256;10.978;2023-03-01T03:28:54;-2.80;98.00
26575;DHT22;67165;50.256;10.978;2023-03-01T03:31:20;-2.90;98.00
26575;DHT22;67165;50.256;10.978;2023-03-01T03:33:45;-3.00;98.00
26575;DHT22;67165;50.256;10.978;2023-03-01T03:36:19;-3.00;98.00
26575;DHT22;67165;50.256;10.978;2023-03-01T03:38:46;-3.10;98.00
26575;DHT22;67165;50.256;10.978;2023-03-01T03:41:12;-3.10;98.00
26575;DHT22;67165;50.256;10.978;2023-03-01T03:43:39;-3.20;98.00
26575;DHT22;67165;50.256;10.978;2023-03-01T03:46:06;-3.20;98.00
26575;DHT22;67165;50.256;10.978;2023-03-01T03:48:50;-3.20;98.00
26575;DHT22;67165;50.256;10.978;2023-03-01T03:51:17;-3.20;98.00
26575;DHT22;67165;50.256;10.978;2023-03-01T03:53:44;-3.20;98.00
26575;DHT22;67165;50.256;10.978;2023-03-01T03:56:10;-3.30;98.00
26575;DHT22;67165;50.256;10.978;2023-03-01T03:58:37;-3.30;98.00
26575;DHT22;67165;50.256;10.978;2023-03-01T04:01:03;-3.30;98.00
26575;DHT22;67165;50.256;10.978;2023-03-01T04:03:31;-3.20;98.00
26575;DHT22;67165;50.256;10.978;2023-03-01T04:05:59;-3.20;98.00
26575;DHT22;67165;50.256;10.978;2023-03-01T04:08:25;-3.20;98.00
26575;DHT22;67165;50.256;10.978;2023-03-01T04:10:53;-3.30;98.00
26575;DHT22;67165;50.256;10.978;2023-03-01T04:13:22;-3.30;98.00
26575;DHT22;67165;50.256;10.978;2023-03-01T04:15:51;-3.30;98.00
26575;DHT22;67165;50.256;10.978;2023-03-01T04:18:18;-3.40;98.00
26575;DHT22;67165;50.256;10.978;2023-03-01T04:20:45;-3.40;98.00
26575;DHT22;67165;50.256;10.978;2023-03-01T04:23:13;-3.40;98.00
26575;DHT22;67165;50.256;10.978;2023-03-01T04:25:55;-3.40;98.00
26575;DHT22;67165;50.256;10.978;2023-03-01T04:30:50;-3.30;98.00
26575;DHT22;67165;50.256;10.978;2023-03-01T04:33:17;-3.10;98.00
26575;DHT22;67165;50.256;10.978;2023-03-01T04:35:42;-3.00;98.00
26575;DHT22;67165;50.256;10.978;2023-03-01T04:38:08;-3.00;98.00
26575;DHT22;67165;50.256;10.978;2023-03-01T04:40:34;-2.90;98.00
26575;DHT22;67165;50.256;10.978;2023-03-01T04:43:01;-2.80;98.00
26575;DHT22;67165;50.256;10.978;2023-03-01T04:45:27;-2.80;98.00
26575;DHT22;67165;50.256;10.978;2023-03-01T04:47:53;-2.70;98.00
26575;DHT22;67165;50.256;10.978;2023-03-01T04:50:19;-2.70;98.00
26575;DHT22;67165;50.256;10.978;2023-03-01T04:52:49;-2.70;98.00
26575;DHT22;67165;50.256;10.978;2023-03-01T04:55:15;-2.70;98.00
26575;DHT22;67165;50.256;10.978;2023-03-01T04:57:41;-2.70;98.00
26575;DHT22;67165;50.256;10.978;2023-03-01T05:00:09;-2.50;98.00
26575;DHT22;67165;50.256;10.978;2023-03-01T05:02:54;-2.50;98.00
26575;DHT22;67165;50.256;10.978;2023-03-01T05:07:56;-2.40;98.00
26575;DHT22;67165;50.256;10.978;2023-03-01T05:10:22;-2.40;98.00
26575;DHT22;67165;50.256;10.978;2023-03-01T05:12:48;-2.50;98.00
26575;DHT22;67165;50.256;10.978;2023-03-01T05:15:14;-2.40;98.00
26575;DHT22;67165;50.256;10.978;2023-03-01T05:17:40;-2.40;98.00
26575;DHT22;67165;50.256;10.978;2023-03-01T05:20:06;-2.40;98.00
26575;DHT22;67165;50.256;10.978;2023-03-01T05:22:35;-2.40;98.00
26575;DHT22;67165;50.256;10.978;2023-03-01T05:25:02;-2.50;98.00
26575;DHT22;67165;50.256;10.978;2023-03-01T05:27:28;-2.50;98.00
26575;DHT22;67165;50.256;10.978;2023-03-01T05:29:55;-2.50;98.00
26575;DHT22;67165;50.256;10.978;2023-03-01T05:32:21;-2.50;98.00
26575;DHT22;67165;50.256;10.978;2023-03-01T05:34:46;-2.60;98.00
26575;DHT22;67165;50.256;10.978;2023-03-01T05:37:13;-2.60;98.00
26575;DHT22;67165;50.256;10.978;2023-03-01T05:39:39;-2.60;98.00
26575;DHT22;67165;50.256;10.978;2023-03-01T05:42:04;-2.60;98.00
26575;DHT22;67165;50.256;10.978;2023-03-01T05:44:30;-2.70;98.00
26575;DHT22;67165;50.256;10.978;2023-03-01T05:46:56;-2.70;98.00
26575;DHT22;67165;50.256;10.978;2023-03-01T05:49:22;-2.70;98.00
26575;DHT22;67165;50.256;10.978;2023-03-01T05:51:52;-2.70;98.00
26575;DHT22;67165;50.256;10.978;2023-03-01T05:54:20;-2.80;98.00
26575;DHT22;67165;50.256;10.978;2023-03-01T05:56:46;-2.70;98.00
26575;DHT22;67165;50.256;10.978;2023-03-01T05:59:12;-2.70;98.00
26575;DHT22;67165;50.256;10.978;2023-03-01T06:01:39;-2.60;98.00
26575;DHT22;67165;50.256;10.978;2023-03-01T06:04:05;-2.50;98.00
26575;DHT22;67165;50.256;10.978;2023-03-01T06:06:34;-2.40;98.00
26575;DHT22;67165;50.256;10.978;2023-03-01T06:09:03;-2.40;98.00
26575;DHT22;67165;50.256;10.978;2023-03-01T06:11:29;-2.40;98.00
26575;DHT22;67165;50.256;10.978;2023-03-01T06:13:54;-2.40;98.00
26575;DHT22;67165;50.256;10.978;2023-03-01T06:16:20;-2.30;98.00
26575;DHT22;67165;50.256;10.978;2023-03-01T06:18:45;-2.30;98.00
26575;DHT22;67165;50.256;10.978;2023-03-01T06:21:11;-2.30;98.00
26575;DHT22;67165;50.256;10.978;2023-03-01T06:23:37;-2.20;98.00
26575;DHT22;67165;50.256;10.978;2023-03-01T06:26:09;-2.10;98.00
26575;DHT22;67165;50.256;10.978;2023-03-01T06:28:36;-2.10;98.00
26575;DHT22;67165;50.256;10.978;2023-03-01T06:31:02;-2.10;98.00
26575;DHT22;67165;50.256;10.978;2023-03-01T06:33:28;-2.10;98.00
26575;DHT22;67165;50.256;10.978;2023-03-01T06:35:54;-2.10;98.00
26575;DHT22;67165;50.256;10.978;2023-03-01T06:38:21;-2.00;98.00
26575;DHT22;67165;50.256;10.978;2023-03-01T06:40:51;-1.90;98.00
26575;DHT22;67165;50.256;10.978;2023-03-01T06:43:17;-1.80;98.00
26575;DHT22;67165;50.256;10.978;2023-03-01T06:45:43;-1.70;98.00
26575;DHT22;67165;50.256;10.978;2023-03-01T06:48:09;-1.70;98.00
26575;DHT22;67165;50.256;10.978;2023-03-01T06:50:35;-1.80;98.00
26575;DHT22;67165;50.256;10.978;2023-03-01T06:53:01;-1.70;98.00
26575;DHT22;67165;50.256;10.978;2023-03-01T06:55:27;-1.70;98.00
26575;DHT22;67165;50.256;10.978;2023-03-01T06:57:57;-1.60;98.00
26575;DHT22;67165;50.256;10.978;2023-03-01T07:00:23;-1.60;98.00
26575;DHT22;67165;50.256;10.978;2023-03-01T07:02:49;-1.70;98.00
26575;DHT22;67165;50.256;10.978;2023-03-01T07:05:15;-1.70;98.00
26575;DHT22;67165;50.256;10.978;2023-03-01T07:07:40;-1.60;98.00
26575;DHT22;67165;50.256;10.978;2023-03-01T07:10:07;-1.50;98.00
26575;DHT22;67165;50.256;10.978;2023-03-01T07:12:33;-1.50;98.00
26575;DHT22;67165;50.256;10.978;2023-03-01T07:14:58;-1.50;98.00
26575;DHT22;67165;50.256;10.978;2023-03-01T07:17:24;-1.40;98.00
26575;DHT22;67165;50.256;10.978;2023-03-01T07:19:50;-1.30;98.00
26575;DHT22;67165;50.256;10.978;2023-03-01T07:22:15;-1.20;98.00
26575;DHT22;67165;50.256;10.978;2023-03-01T07:24:41;-1.20;98.00
26575;DHT22;67165;50.256;10.978;2023-03-01T07:27:07;-1.10;98.00
26575;DHT22;67165;50.256;10.978;2023-03-01T07:29:33;-1.00;98.00
26575;DHT22;67165;50.256;10.978;2023-03-01T07:31:58;-0.90;98.00
26575;DHT22;67165;50.256;10.978;2023-03-01T07:34:24;-0.90;98.00
26575;DHT22;67165;50.256;10.978;2023-03-01T07:36:50;-0.80;98.00
26575;DHT22;67165;50.256;10.978;2023-03-01T07:39:16;-0.70;98.00
26575;DHT22;67165;50.256;10.978;2023-03-01T07:41:41;-0.70;98.00
26575;DHT22;67165;50.256;10.978;2023-03-01T07:44:07;-0.70;98.00
26575;DHT22;67165;50.256;10.978;2023-03-01T07:46:33;-0.70;98.00
26575;DHT22;67165;50.256;10.978;2023-03-01T07:48:58;-0.60;98.00
26575;DHT22;67165;50.256;10.978;2023-03-01T07:51:24;-0.60;98.00
26575;DHT22;67165;50.256;10.978;2023-03-01T07:53:50;-0.50;98.00
26575;DHT22;67165;50.256;10.978;2023-03-01T07:56:16;-0.40;98.00
26575;DHT22;67165;50.256;10.978;2023-03-01T07:58:44;-0.40;98.00
26575;DHT22;67165;50.256;10.978;2023-03-01T08:01:12;-0.30;98.00
26575;DHT22;67165;50.256;10.978;2023-03-01T08:03:38;-0.20;98.00
26575;DHT22;67165;50.256;10.978;2023-03-01T08:06:06;-0.20;98.00
26575;DHT22;67165;50.256;10.978;2023-03-01T08:08:33;-0.10;98.00
26575;DHT22;67165;50.256;10.978;2023-03-01T08:11:00;0.00;98.00
26575;DHT22;67165;50.256;10.978;2023-03-01T08:13:26;0.00;98.00
26575;DHT22;67165;50.256;10.978;2023-03-01T08:15:52;0.00;98.00
26575;DHT22;67165;50.256;10.978;2023-03-01T08:18:19;0.10;98.00
26575;DHT22;67165;50.256;10.978;2023-03-01T08:20:45;0.10;98.00
26575;DHT22;67165;50.256;10.978;2023-03-01T08:23:11;0.10;98.00
26575;DHT22;67165;50.256;10.978;2023-03-01T08:25:38;0.20;98.00
26575;DHT22;67165;50.256;10.978;2023-03-01T08:28:04;0.20;98.00
26575;DHT22;67165;50.256;10.978;2023-03-01T08:30:30;0.30;98.00
26575;DHT22;67165;50.256;10.978;2023-03-01T08:32:55;0.40;98.00
26575;DHT22;67165;50.256;10.978;2023-03-01T08:35:22;0.40;98.00
26575;DHT22;67165;50.256;10.978;2023-03-01T08:37:47;0.50;98.00
26575;DHT22;67165;50.256;10.978;2023-03-01T08:40:13;0.60;98.00
26575;DHT22;67165;50.256;10.978;2023-03-01T08:42:40;0.70;98.00
26575;DHT22;67165;50.256;10.978;2023-03-01T08:45:09;0.80;98.00
26575;DHT22;67165;50.256;10.978;2023-03-01T08:47:35;0.90;98.00
26575;DHT22;67165;50.256;10.978;2023-03-01T08:50:00;1.00;98.00
26575;DHT22;67165;50.256;10.978;2023-03-01T08:52:26;1.00;98.00
26575;DHT22;67165;50.256;10.978;2023-03-01T08:54:52;1.00;98.00
26575;DHT22;67165;50.256;10.978;2023-03-01T08:57:18;1.10;98.00
26575;DHT22;67165;50.256;10.978;2023-03-01T08:59:43;1.10;98.00
26575;DHT22;67165;50.256;10.978;2023-03-01T09:02:16;1.10;98.00
26575;DHT22;67165;50.256;10.978;2023-03-01T09:04:42;1.20;98.00
26575;DHT22;67165;50.256;10.978;2023-03-01T09:07:08;1.30;98.00
26575;DHT22;67165;50.256;10.978;2023-03-01T09:09:34;1.40;98.00
26575;DHT22;67165;50.256;10.978;2023-03-01T09:12:00;1.40;98.00
26575;DHT22;67165;50.256;10.978;2023-03-01T09:14:26;1.40;98.00
26575;DHT22;67165;50.256;10.978;2023-03-01T09:16:52;1.50;98.00
26575;DHT22;67165;50.256;10.978;2023-03-01T09:19:17;1.60;98.00
26575;DHT22;67165;50.256;10.978;2023-03-01T09:21:43;1.70;98.00
26575;DHT22;67165;50.256;10.978;2023-03-01T09:24:18;1.70;98.00
26575;DHT22;67165;50.256;10.978;2023-03-01T09:26:44;1.70;98.00
26575;DHT22;67165;50.256;10.978;2023-03-01T09:29:13;1.80;98.00
26575;DHT22;67165;50.256;10.978;2023-03-01T09:31:40;2.00;98.00
26575;DHT22;67165;50.256;10.978;2023-03-01T09:34:06;2.00;98.00
26575;DHT22;67165;50.256;10.978;2023-03-01T09:36:33;2.10;98.00
26575;DHT22;67165;50.256;10.978;2023-03-01T09:38:59;2.10;98.00
26575;DHT22;67165;50.256;10.978;2023-03-01T09:41:45;2.20;98.00
26575;DHT22;67165;50.256;10.978;2023-03-01T09:46:46;2.30;98.00
26575;DHT22;67165;50.256;10.978;2023-03-01T09:49:24;2.30;98.00
26575;DHT22;67165;50.256;10.978;2023-03-01T09:52:11;2.40;98.00
26575;DHT22;67165;50.256;10.978;2023-03-01T09:54:38;2.50;98.00
26575;DHT22;67165;50.256;10.978;2023-03-01T10:04:50;2.70;98.00
26575;DHT22;67165;50.256;10.978;2023-03-01T10:09:49;2.80;98.00
26575;DHT22;67165;50.256;10.978;2023-03-01T10:12:22;2.80;98.00
26575;DHT22;67165;50.256;10.978;2023-03-01T10:15:11;2.80;98.00
26575;DHT22;67165;50.256;10.978;2023-03-01T10:17:45;3.00;98.00
26575;DHT22;67165;50.256;10.978;2023-03-01T10:20:25;3.10;98.00
26575;DHT22;67165;50.256;10.978;2023-03-01T10:22:51;3.10;98.00
26575;DHT22;67165;50.256;10.978;2023-03-01T10:27:53;3.20;98.00
26575;DHT22;67165;50.256;10.978;2023-03-01T10:30:20;3.40;98.00
26575;DHT22;67165;50.256;10.978;2023-03-01T10:32:49;3.40;98.00
26575;DHT22;67165;50.256;10.978;2023-03-01T10:35:21;3.50;98.00
26575;DHT22;67165;50.256;10.978;2023-03-01T10:38:10;3.60;98.00
26575;DHT22;67165;50.256;10.978;2023-03-01T10:40:49;3.60;98.00
26575;DHT22;67165;50.256;10.978;2023-03-01T10:43:15;3.60;98.00
26575;DHT22;67165;50.256;10.978;2023-03-01T10:45:41;3.70;98.00
26575;DHT22;67165;50.256;10.978;2023-03-01T10:48:17;3.80;98.00
26575;DHT22;67165;50.256;10.978;2023-03-01T10:50:45;3.90;98.00
26575;DHT22;67165;50.256;10.978;2023-03-01T10:53:29;4.10;98.00
26575;DHT22;67165;50.256;10.978;2023-03-01T10:58:30;4.00;98.00
26575;DHT22;67165;50.256;10.978;2023-03-01T11:01:01;4.00;98.00
26575;DHT22;67165;50.256;10.978;2023-03-01T11:03:28;4.10;98.00
26575;DHT22;67165;50.256;10.978;2023-03-01T11:06:24;4.10;98.00
26575;DHT22;67165;50.256;10.978;2023-03-01T11:08:51;4.10;98.00
26575;DHT22;67165;50.256;10.978;2023-03-01T11:11:45;4.10;98.00
26575;DHT22;67165;50.256;10.978;2023-03-01T11:14:16;4.20;98.00
26575;DHT22;67165;50.256;10.978;2023-03-01T11:16:44;4.20;98.00
26575;DHT22;67165;50.256;10.978;2023-03-01T11:22:01;4.30;98.00
26575;DHT22;67165;50.256;10.978;2023-03-01T11:24:38;4.40;98.00
26575;DHT22;67165;50.256;10.978;2023-03-01T11:27:25;4.50;98.00
26575;DHT22;67165;50.256;10.978;2023-03-01T11:33:41;4.70;98.00
26575;DHT22;67165;50.256;10.978;2023-03-01T11:36:05;4.70;98.00
26575;DHT22;67165;50.256;10.978;2023-03-01T11:38:35;4.70;98.00
26575;DHT22;67165;50.256;10.978;2023-03-01T11:41:14;4.80;98.00
26575;DHT22;67165;50.256;10.978;2023-03-01T12:25:31;5.70;98.00
26575;DHT22;67165;50.256;10.978;2023-03-01T12:30:47;5.70;98.00
26575;DHT22;67165;50.256;10.978;2023-03-01T12:36:12;5.80;98.00
26575;DHT22;67165;50.256;10.978;2023-03-01T12:38:50;5.80;98.00
26575;DHT22;67165;50.256;10.978;2023-03-01T12:45:05;5.70;98.00
26575;DHT22;67165;50.256;10.978;2023-03-01T12:50:23;5.70;98.00
26575;DHT22;67165;50.256;10.978;2023-03-01T12:52:57;5.60;98.00
26575;DHT22;67165;50.256;10.978;2023-03-01T12:55:29;5.60;98.00
26575;DHT22;67165;50.256;10.978;2023-03-01T13:12:52;5.70;98.00
26575;DHT22;67165;50.256;10.978;2023-03-01T13:15:35;5.80;98.00
26575;DHT22;67165;50.256;10.978;2023-03-01T13:23:25;5.70;98.00
26575;DHT22;67165;50.256;10.978;2023-03-01T13:28:38;5.70;98.00
26575;DHT22;67165;50.256;10.978;2023-03-01T13:31:06;5.60;98.00
26575;DHT22;67165;50.256;10.978;2023-03-01T13:36:00;5.80;98.00
26575;DHT22;67165;50.256;10.978;2023-03-01T13:38:46;5.70;98.00
26575;DHT22;67165;50.256;10.978;2023-03-01T13:41:17;5.70;98.00
26575;DHT22;67165;50.256;10.978;2023-03-01T13:43:59;5.70;98.00
26575;DHT22;67165;50.256;10.978;2023-03-01T13:46:25;5.80;98.00
26575;DHT22;67165;50.256;10.978;2023-03-01T13:48:53;5.70;98.00
26575;DHT22;67165;50.256;10.978;2023-03-01T13:51:25;5.70;98.00
26575;DHT22;67165;50.256;10.978;2023-03-01T13:53:53;5.70;98.00
26575;DHT22;67165;50.256;10.978;2023-03-01T13:56:27;5.70;98.00
26575;DHT22;67165;50.256;10.978;2023-03-01T13:59:02;5.70;98.00
26575;DHT22;67165;50.256;10.978;2023-03-01T14:01:38;5.60;98.00
26575;DHT22;67165;50.256;10.978;2023-03-01T14:06:44;5.70;98.00
26575;DHT22;67165;50.256;10.978;2023-03-01T14:09:18;5.60;98.00
26575;DHT22;67165;50.256;10.978;2023-03-01T14:11:58;5.60;98.00
26575;DHT22;67165;50.256;10.978;2023-03-01T14:14:55;5.60;98.00
26575;DHT22;67165;50.256;10.978;2023-03-01T14:19:58;5.60;98.00
26575;DHT22;67165;50.256;10.978;2023-03-01T14:22:27;5.60;98.00
26575;DHT22;67165;50.256;10.978;2023-03-01T14:25:03;5.60;98.00
26575;DHT22;67165;50.256;10.978;2023-03-01T14:27:35;5.60;98.00
26575;DHT22;67165;50.256;10.978;2023-03-01T14:30:09;5.70;98.00
26575;DHT22;67165;50.256;10.978;2023-03-01T14:32:37;5.70;98.00
26575;DHT22;67165;50.256;10.978;2023-03-01T14:35:16;5.70;98.00
26575;DHT22;67165;50.256;10.978;2023-03-01T14:37:44;5.70;98.00
26575;DHT22;67165;50.256;10.978;2023-03-01T14:42:52;5.70;98.00
26575;DHT22;67165;50.256;10.978;2023-03-01T14:45:18;5.60;98.00
26575;DHT22;67165;50.256;10.978;2023-03-01T14:47:45;5.60;98.00
26575;DHT22;67165;50.256;10.978;2023-03-01T14:50:26;5.60;98.00
26575;DHT22;67165;50.256;10.978;2023-03-01T14:52:55;5.60;98.00
26575;DHT22;67165;50.256;10.978;2023-03-01T14:55:30;5.60;98.00
26575;DHT22;67165;50.256;10.978;2023-03-01T14:57:57;5.60;98.00
26575;DHT22;67165;50.256;10.978;2023-03-01T15:00:28;5.50;98.00
26575;DHT22;67165;50.256;10.978;2023-03-01T15:02:56;5.50;98.00
26575;DHT22;67165;50.256;10.978;2023-03-01T15:05:32;5.40;98.00
26575;DHT22;67165;50.256;10.978;2023-03-01T15:08:00;5.30;98.00
26575;DHT22;67165;50.256;10.978;2023-03-01T15:10:32;5.30;98.00
26575;DHT22;67165;50.256;10.978;2023-03-01T15:13:34;5.30;98.00
26575;DHT22;67165;50.256;10.978;2023-03-01T15:16:07;5.30;98.00
26575;DHT22;67165;50.256;10.978;2023-03-01T15:18:34;5.20;98.00
26575;DHT22;67165;50.256;10.978;2023-03-01T15:21:23;5.10;98.00
26575;DHT22;67165;50.256;10.978;2023-03-01T15:26:25;5.10;98.00
26575;DHT22;67165;50.256;10.978;2023-03-01T15:28:54;5.00;98.00
26575;DHT22;67165;50.256;10.978;2023-03-01T15:31:25;5.00;98.00
26575;DHT22;67165;50.256;10.978;2023-03-01T15:33:52;5.00;98.00
26575;DHT22;67165;50.256;10.978;2023-03-01T15:36:40;5.00;98.00
26575;DHT22;67165;50.256;10.978;2023-03-01T15:47:57;4.80;98.00
26575;DHT22;67165;50.256;10.978;2023-03-01T15:50:28;4.70;98.00
26575;DHT22;67165;50.256;10.978;2023-03-01T15:52:55;4.70;98.00
26575;DHT22;67165;50.256;10.978;2023-03-01T15:55:25;4.70;98.00
26575;DHT22;67165;50.256;10.978;2023-03-01T16:00:32;4.70;98.00
26575;DHT22;67165;50.256;10.978;2023-03-01T16:02:58;4.60;98.00
26575;DHT22;67165;50.256;10.978;2023-03-01T16:05:26;4.50;98.00
26575;DHT22;67165;50.256;10.978;2023-03-01T16:07:55;4.60;98.00
26575;DHT22;67165;50.256;10.978;2023-03-01T16:10:21;4.50;98.00
26575;DHT22;67165;50.256;10.978;2023-03-01T16:12:47;4.50;98.00
26575;DHT22;67165;50.256;10.978;2023-03-01T16:15:33;4.50;98.00
26575;DHT22;67165;50.256;10.978;2023-03-01T16:18:02;4.40;98.00
26575;DHT22;67165;50.256;10.978;2023-03-01T16:20:29;4.40;98.00
26575;DHT22;67165;50.256;10.978;2023-03-01T16:22:58;4.30;98.00
26575;DHT22;67165;50.256;10.978;2023-03-01T16:25:25;4.20;98.00
26575;DHT22;67165;50.256;10.978;2023-03-01T16:27:51;4.10;98.00
26575;DHT22;67165;50.256;10.978;2023-03-01T16:30:19;4.00;98.00
26575;DHT22;67165;50.256;10.978;2023-03-01T16:32:46;3.90;98.00
26575;DHT22;67165;50.256;10.978;2023-03-01T16:35:14;3.90;98.00
26575;DHT22;67165;50.256;10.978;2023-03-01T16:37:40;3.80;98.00
26575;DHT22;67165;50.256;10.978;2023-03-01T16:40:14;3.70;98.00
26575;DHT22;67165;50.256;10.978;2023-03-01T16:42:41;3.70;98.00
26575;DHT22;67165;50.256;10.978;2023-03-01T16:45:08;3.60;98.00
26575;DHT22;67165;50.256;10.978;2023-03-01T16:47:34;3.50;98.00
26575;DHT22;67165;50.256;10.978;2023-03-01T16:50:00;3.40;98.00
26575;DHT22;67165;50.256;10.978;2023-03-01T16:52:26;3.40;98.00
26575;DHT22;67165;50.256;10.978;2023-03-01T16:54:52;3.30;98.00
26575;DHT22;67165;50.256;10.978;2023-03-01T16:57:17;3.20;98.00
26575;DHT22;67165;50.256;10.978;2023-03-01T16:59:43;3.30;98.00
26575;DHT22;67165;50.256;10.978;2023-03-01T17:02:11;3.30;98.00
26575;DHT22;67165;50.256;10.978;2023-03-01T17:04:38;3.20;98.00
26575;DHT22;67165;50.256;10.978;2023-03-01T17:07:04;3.20;98.00
26575;DHT22;67165;50.256;10.978;2023-03-01T17:09:29;3.10;98.00
26575;DHT22;67165;50.256;10.978;2023-03-01T17:11:55;3.00;98.00
26575;DHT22;67165;50.256;10.978;2023-03-01T17:14:21;3.00;98.00
26575;DHT22;67165;50.256;10.978;2023-03-01T17:16:47;3.00;98.00
26575;DHT22;67165;50.256;10.978;2023-03-01T17:19:12;2.90;98.00
26575;DHT22;67165;50.256;10.978;2023-03-01T17:21:43;2.90;98.00
26575;DHT22;67165;50.256;10.978;2023-03-01T17:24:10;2.80;98.00
26575;DHT22;67165;50.256;10.978;2023-03-01T17:26:36;2.80;98.00
26575;DHT22;67165;50.256;10.978;2023-03-01T17:29:03;2.80;98.00
26575;DHT22;67165;50.256;10.978;2023-03-01T17:31:33;2.80;98.00
26575;DHT22;67165;50.256;10.978;2023-03-01T17:33:59;2.70;98.00
26575;DHT22;67165;50.256;10.978;2023-03-01T17:36:25;2.70;98.00
26575;DHT22;67165;50.256;10.978;2023-03-01T17:38:50;2.70;98.00
26575;DHT22;67165;50.256;10.978;2023-03-01T17:41:17;2.70;98.00
26575;DHT22;67165;50.256;10.978;2023-03-01T17:43:44;2.60;98.00
26575;DHT22;67165;50.256;10.978;2023-03-01T17:46:10;2.50;98.00
26575;DHT22;67165;50.256;10.978;2023-03-01T17:48:36;2.50;98.00